createdAt,value
2018-10-21T00:01:07.169Z,102530.19
2018-10-21T00:03:36.183Z,102527.83
2018-10-21T00:06:05.040Z,102532.85
2018-10-21T00:08:33.715Z,102535.30
2018-10-21T00:11:02.429Z,102530.42
2018-10-21T00:13:31.810Z,102529.45
2018-10-21T00:16:00.518Z,102526.79
2018-10-21T00:18:29.223Z,102531.39
2018-10-21T00:20:58.039Z,102527.00
2018-10-21T00:23:26.668Z,102524.66
2018-10-21T00:25:55.412Z,102534.16
2018-10-21T00:28:24.140Z,102519.30
2018-10-21T00:30:52.864Z,102518.26
2018-10-21T00:33:21.577Z,102522.97
2018-10-21T00:35:50.296Z,102517.72
2018-10-21T00:38:19.021Z,102514.77
2018-10-21T00:40:48.126Z,102513.10
2018-10-21T00:43:17.120Z,102515.77
2018-10-21T00:45:45.833Z,102510.18
2018-10-21T00:48:14.540Z,102514.80
2018-10-21T00:50:43.296Z,102509.34
2018-10-21T00:53:12.010Z,102515.26
2018-10-21T00:55:40.873Z,102512.09
2018-10-21T00:58:10.667Z,102512.89
2018-10-21T01:00:39.402Z,102508.50
2018-10-21T01:03:08.153Z,102502.66
2018-10-21T01:05:36.848Z,102493.05
2018-10-21T01:08:05.814Z,102494.74
2018-10-21T01:10:36.339Z,102498.59
2018-10-21T01:13:05.207Z,102495.99
2018-10-21T01:15:33.938Z,102502.44
2018-10-21T01:18:02.676Z,102504.89
2018-10-21T01:20:31.383Z,102503.40
2018-10-21T01:23:00.133Z,102496.70
2018-10-21T01:25:28.853Z,102496.25
2018-10-21T01:27:57.560Z,102501.86
2018-10-21T01:30:26.296Z,102501.48
2018-10-21T01:32:55.051Z,102506.87
2018-10-21T01:35:23.728Z,102511.60
2018-10-21T01:37:52.725Z,102510.17
2018-10-21T01:40:32.281Z,102511.34
2018-10-21T01:43:01.504Z,102510.34
2018-10-21T01:45:30.226Z,102510.34
2018-10-21T01:48:00.314Z,102502.16
2018-10-21T01:50:29.050Z,102506.12
2018-10-21T01:52:58.899Z,102510.84
2018-10-21T01:55:28.025Z,102507.43
2018-10-21T01:57:57.397Z,102505.69
2018-10-21T02:00:26.735Z,102496.51
2018-10-21T02:02:56.059Z,102504.66
2018-10-21T02:05:24.964Z,102507.69
2018-10-21T02:07:54.244Z,102501.61
2018-10-21T02:10:23.245Z,102506.08
2018-10-21T02:12:52.080Z,102502.16
2018-10-21T02:15:20.789Z,102496.06
2018-10-21T02:17:49.536Z,102493.84
2018-10-21T02:20:18.948Z,102494.29
2018-10-21T02:22:48.260Z,102486.09
2018-10-21T02:25:17.037Z,102488.69
2018-10-21T02:27:46.543Z,102479.95
2018-10-21T02:30:17.718Z,102481.37
2018-10-21T02:32:47.252Z,102481.95
2018-10-21T02:35:16.789Z,102476.34
2018-10-21T02:37:45.836Z,102477.66
2018-10-21T02:41:28.605Z,102478.45
2018-10-21T02:43:57.339Z,102476.16
2018-10-21T02:46:26.284Z,102475.55
2018-10-21T02:48:56.199Z,102476.05
2018-10-21T02:51:25.110Z,102479.90
2018-10-21T02:53:53.824Z,102481.56
2018-10-21T02:56:22.540Z,102480.69
2018-10-21T02:58:51.466Z,102482.29
2018-10-21T03:01:20.192Z,102474.78
2018-10-21T03:03:49.179Z,102470.25
2018-10-21T03:06:17.987Z,102463.59
2018-10-21T03:08:46.688Z,102468.25
2018-10-21T03:11:15.523Z,102464.76
2018-10-21T03:13:44.253Z,102469.97
2018-10-21T03:16:12.973Z,102476.88
2018-10-21T03:18:41.712Z,102473.41
2018-10-21T03:21:10.446Z,102473.97
2018-10-21T03:23:39.291Z,102468.30
2018-10-21T03:26:07.981Z,102463.98
2018-10-21T03:28:36.695Z,102468.69
2018-10-21T03:31:05.426Z,102476.57
2018-10-21T03:33:34.209Z,102477.07
2018-10-21T03:36:02.898Z,102470.55
2018-10-21T03:38:31.620Z,102474.47
2018-10-21T03:41:00.344Z,102480.84
2018-10-21T03:43:29.068Z,102476.02
2018-10-21T03:45:57.805Z,102478.48
2018-10-21T03:48:26.502Z,102474.98
2018-10-21T03:50:55.699Z,102479.34
2018-10-21T03:53:24.707Z,102481.39
2018-10-21T03:55:53.445Z,102479.08
2018-10-21T03:58:22.394Z,102477.33
2018-10-21T04:00:51.379Z,102474.73
2018-10-21T04:03:20.226Z,102472.12
2018-10-21T04:05:48.957Z,102466.46
2018-10-21T04:08:18.367Z,102466.55
2018-10-21T04:10:47.353Z,102459.64
2018-10-21T04:13:16.114Z,102467.55
2018-10-21T04:15:45.126Z,102471.45
2018-10-21T04:18:13.808Z,102468.80
2018-10-21T04:20:42.579Z,102461.77
2018-10-21T04:23:11.293Z,102453.51
2018-10-21T04:25:40.560Z,102443.44
2018-10-21T04:28:09.903Z,102453.30
2018-10-21T04:30:39.656Z,102446.22
2018-10-21T04:33:13.733Z,102443.08
2018-10-21T04:35:42.772Z,102445.19
2018-10-21T04:40:21.702Z,102430.55
2018-10-21T04:42:51.104Z,102429.63
2018-10-21T04:45:22.678Z,102422.72
2018-10-21T04:47:51.404Z,102421.30
2018-10-21T04:50:20.117Z,102426.42
2018-10-21T04:52:48.839Z,102420.70
2018-10-21T04:55:17.641Z,102421.14
2018-10-21T04:57:47.523Z,102419.72
2018-10-21T05:00:18.153Z,102414.85
2018-10-21T05:02:46.885Z,102408.84
2018-10-21T05:05:16.132Z,102397.55
2018-10-21T05:07:44.852Z,102404.13
2018-10-21T05:10:33.368Z,102407.16
2018-10-21T05:13:02.389Z,102400.63
2018-10-21T05:15:32.402Z,102400.72
2018-10-21T05:18:01.164Z,102404.63
2018-10-21T05:20:29.884Z,102407.37
2018-10-21T05:22:58.601Z,102405.70
2018-10-21T05:25:27.331Z,102403.25
2018-10-21T05:27:56.091Z,102402.09
2018-10-21T05:30:24.760Z,102407.43
2018-10-21T05:32:53.483Z,102411.98
2018-10-21T05:35:22.363Z,102421.41
2018-10-21T05:37:51.214Z,102413.89
2018-10-21T05:40:21.081Z,102409.98
2018-10-21T05:42:50.169Z,102414.69
2018-10-21T05:45:18.916Z,102411.13
2018-10-21T05:47:47.644Z,102405.77
2018-10-21T05:50:16.936Z,102410.48
2018-10-21T05:52:45.699Z,102407.02
2018-10-21T05:55:14.926Z,102408.70
2018-10-21T05:57:43.642Z,102409.97
2018-10-21T06:00:14.859Z,102410.30
2018-10-21T06:02:43.882Z,102411.57
2018-10-21T06:05:23.984Z,102413.70
2018-10-21T06:07:52.712Z,102410.65
2018-10-21T06:10:21.429Z,102419.78
2018-10-21T06:12:50.152Z,102421.14
2018-10-21T06:15:18.864Z,102421.71
2018-10-21T06:17:47.644Z,102418.30
2018-10-21T06:20:19.121Z,102424.47
2018-10-21T06:22:48.168Z,102428.97
2018-10-21T06:25:16.910Z,102428.17
2018-10-21T06:27:45.656Z,102429.16
2018-10-21T06:30:14.371Z,102435.70
2018-10-21T06:32:43.079Z,102431.46
2018-10-21T06:35:11.807Z,102435.45
2018-10-21T06:37:40.521Z,102437.70
2018-10-21T06:40:10.900Z,102438.27
2018-10-21T06:42:39.687Z,102436.28
2018-10-21T06:45:09.523Z,102441.08
2018-10-21T06:47:38.228Z,102441.08
2018-10-21T06:50:12.594Z,102448.45
2018-10-21T06:52:41.328Z,102449.76
2018-10-21T06:55:10.495Z,102456.33
2018-10-21T06:57:39.417Z,102451.92
2018-10-21T07:00:08.462Z,102457.08
2018-10-21T07:02:43.790Z,102458.33
2018-10-21T07:05:24.142Z,102460.48
2018-10-21T07:07:53.021Z,102464.45
2018-10-21T07:10:21.743Z,102461.88
2018-10-21T07:12:50.953Z,102473.91
2018-10-21T07:15:20.225Z,102478.48
2018-10-21T07:17:48.888Z,102476.09
2018-10-21T07:20:17.611Z,102485.04
2018-10-21T07:22:46.323Z,102484.89
2018-10-21T07:25:15.144Z,102481.64
2018-10-21T07:27:43.870Z,102480.58
2018-10-21T07:30:13.285Z,102487.84
2018-10-21T07:32:42.912Z,102489.00
2018-10-21T07:35:13.592Z,102486.63
2018-10-21T07:37:43.236Z,102486.59
2018-10-21T07:40:12.918Z,102493.70
2018-10-21T07:42:42.028Z,102490.02
2018-10-21T07:45:10.759Z,102491.97
2018-10-21T07:47:39.460Z,102489.59
2018-10-21T07:50:14.742Z,102490.69
2018-10-21T07:52:43.449Z,102485.62
2018-10-21T07:55:16.505Z,102490.47
2018-10-21T07:57:45.350Z,102497.22
2018-10-21T08:00:14.020Z,102494.01
2018-10-21T08:02:42.788Z,102501.65
2018-10-21T08:05:23.195Z,102510.63
2018-10-21T08:08:03.247Z,102510.03
2018-10-21T08:10:31.979Z,102514.70
2018-10-21T08:13:00.691Z,102510.31
2018-10-21T08:15:29.401Z,102514.07
2018-10-21T08:17:58.123Z,102510.66
2018-10-21T08:20:26.832Z,102514.25
2018-10-21T08:22:55.703Z,102514.47
2018-10-21T08:25:24.560Z,102517.70
2018-10-21T08:27:53.257Z,102513.04
2018-10-21T08:30:22.105Z,102516.31
2018-10-21T08:32:51.381Z,102510.02
2018-10-21T08:35:20.769Z,102511.40
2018-10-21T08:37:49.503Z,102518.17
2018-10-21T08:40:18.404Z,102516.14
2018-10-21T08:42:47.113Z,102515.80
2018-10-21T08:45:16.839Z,102516.79
2018-10-21T08:47:45.562Z,102523.01
2018-10-21T08:50:14.738Z,102522.24
2018-10-21T08:52:43.618Z,102521.47
2018-10-21T08:55:12.831Z,102511.72
2018-10-21T08:57:41.829Z,102513.97
2018-10-21T09:00:15.308Z,102516.70
2018-10-21T09:02:44.404Z,102514.98
2018-10-21T09:05:14.423Z,102511.98
2018-10-21T09:07:43.967Z,102511.91
2018-10-21T09:10:14.001Z,102505.42
2018-10-21T09:12:42.844Z,102510.52
2018-10-21T09:15:13.949Z,102506.99
2018-10-21T09:17:42.608Z,102507.17
2018-10-21T09:20:13.496Z,102508.47
2018-10-21T09:22:42.308Z,102511.06
2018-10-21T09:25:11.914Z,102503.30
2018-10-21T09:27:41.503Z,102507.28
2018-10-21T09:30:11.560Z,102513.19
2018-10-21T09:32:40.309Z,102513.07
2018-10-21T09:35:11.448Z,102505.32
2018-10-21T09:37:40.738Z,102503.34
2018-10-21T09:40:11.128Z,102503.91
2018-10-21T09:42:39.803Z,102499.60
2018-10-21T09:45:10.077Z,102497.95
2018-10-21T09:47:38.996Z,102494.94
2018-10-21T09:53:04.680Z,102494.51
2018-10-21T09:55:33.410Z,102493.26
2018-10-21T09:58:02.185Z,102491.72
2018-10-21T10:00:36.104Z,102493.58
2018-10-21T10:03:06.511Z,102495.04
2018-10-21T10:05:35.272Z,102486.16
2018-10-21T10:08:05.025Z,102480.37
2018-10-21T10:10:33.727Z,102481.91
2018-10-21T10:13:02.491Z,102475.94
2018-10-21T10:15:31.253Z,102479.41
2018-10-21T10:17:59.948Z,102469.28
2018-10-21T10:20:28.808Z,102473.41
2018-10-21T10:22:57.613Z,102472.17
2018-10-21T10:25:26.356Z,102462.42
2018-10-21T10:27:55.090Z,102460.02
2018-10-21T10:30:24.028Z,102462.09
2018-10-21T10:32:52.697Z,102453.23
2018-10-21T10:35:21.484Z,102452.86
2018-10-21T10:37:50.213Z,102454.21
2018-10-21T10:40:18.982Z,102453.42
2018-10-21T10:42:47.662Z,102449.02
2018-10-21T10:45:16.427Z,102442.81
2018-10-21T10:47:45.145Z,102441.95
2018-10-21T10:50:13.907Z,102440.59
2018-10-21T10:52:43.983Z,102436.86
2018-10-21T10:55:13.168Z,102432.27
2018-10-21T10:57:41.847Z,102426.77
2018-10-21T11:00:11.788Z,102420.22
2018-10-21T11:02:40.728Z,102419.77
2018-10-21T11:05:10.288Z,102410.63
2018-10-21T11:07:39.169Z,102414.78
2018-10-21T11:10:08.533Z,102416.61
2018-10-21T11:12:37.293Z,102404.61
2018-10-21T11:15:06.788Z,102411.04
2018-10-21T11:17:35.504Z,102405.02
2018-10-21T11:20:05.135Z,102403.28
2018-10-21T11:22:33.906Z,102403.42
2018-10-21T11:25:02.585Z,102400.23
2018-10-21T11:27:33.574Z,102400.06
2018-10-21T11:30:02.285Z,102406.08
2018-10-21T11:32:31.060Z,102397.62
2018-10-21T11:34:59.793Z,102390.02
2018-10-21T11:37:28.656Z,102390.02
2018-10-21T11:39:58.248Z,102392.18
2018-10-21T11:42:26.971Z,102384.08
2018-10-21T11:44:55.900Z,102381.66
2018-10-21T11:47:28.897Z,102383.16
2018-10-21T11:50:00.048Z,102375.25
2018-10-21T11:52:28.803Z,102375.92
2018-10-21T11:54:57.524Z,102373.38
2018-10-21T11:57:26.547Z,102366.78
2018-10-21T11:59:55.381Z,102364.89
2018-10-21T12:02:24.091Z,102369.41
2018-10-21T12:04:53.069Z,102366.59
2018-10-21T12:07:22.061Z,102363.77
2018-10-21T12:09:51.050Z,102359.97
2018-10-21T12:12:19.770Z,102349.56
2018-10-21T12:14:48.496Z,102344.94
2018-10-21T12:17:17.220Z,102349.42
2018-10-21T12:19:46.711Z,102342.27
2018-10-21T12:22:15.500Z,102337.23
2018-10-21T12:24:45.309Z,102327.70
2018-10-21T12:27:14.289Z,102331.80
2018-10-21T12:29:43.018Z,102333.45
2018-10-21T12:32:12.184Z,102324.61
2018-10-21T12:37:41.255Z,102319.12
2018-10-21T12:40:10.555Z,102317.61
2018-10-21T12:42:39.652Z,102314.47
2018-10-21T12:45:09.874Z,102304.03
2018-10-21T12:47:38.756Z,102311.48
2018-10-21T12:50:08.192Z,102304.99
2018-10-21T12:52:37.752Z,102305.73
2018-10-21T12:55:07.509Z,102308.95
2018-10-21T12:57:36.192Z,102300.06
2018-10-21T13:00:06.728Z,102302.98
2018-10-21T13:02:35.493Z,102301.03
2018-10-21T13:05:04.729Z,102297.54
2018-10-21T13:07:33.504Z,102298.73
2018-10-21T13:10:02.508Z,102295.52
2018-10-21T13:12:31.184Z,102294.02
2018-10-21T13:15:00.172Z,102297.58
2018-10-21T13:17:28.898Z,102290.75
2018-10-21T13:19:57.609Z,102288.74
2018-10-21T13:22:26.541Z,102288.03
2018-10-21T13:24:55.267Z,102287.72
2018-10-21T13:27:24.001Z,102288.19
2018-10-21T13:29:52.910Z,102285.44
2018-10-21T13:32:21.892Z,102286.53
2018-10-21T13:34:50.896Z,102286.17
2018-10-21T13:37:19.884Z,102286.80
2018-10-21T13:39:48.621Z,102281.33
2018-10-21T13:42:17.812Z,102279.73
2018-10-21T13:44:46.517Z,102276.33
2018-10-21T13:47:15.774Z,102272.52
2018-10-21T13:49:44.495Z,102270.87
2018-10-21T13:52:13.356Z,102263.19
2018-10-21T13:54:42.228Z,102258.56
2018-10-21T13:57:10.940Z,102265.67
2018-10-21T13:59:39.888Z,102260.08
2018-10-21T14:02:12.520Z,102258.80
2018-10-21T14:04:41.232Z,102253.84
2018-10-21T14:07:10.046Z,102250.73
2018-10-21T14:09:38.712Z,102256.13
2018-10-21T14:12:07.616Z,102254.34
2018-10-21T14:14:36.328Z,102246.19
2018-10-21T14:17:05.127Z,102250.22
2018-10-21T14:19:33.844Z,102243.50
2018-10-21T14:22:02.596Z,102237.79
2018-10-21T14:24:31.343Z,102243.08
2018-10-21T14:27:00.046Z,102239.50
2018-10-21T14:29:28.756Z,102239.23
2018-10-21T14:31:57.729Z,102238.98
2018-10-21T14:34:26.453Z,102239.07
2018-10-21T14:36:55.206Z,102233.87
2018-10-21T14:39:23.912Z,102230.45
2018-10-21T14:41:52.631Z,102233.84
2018-10-21T14:44:21.357Z,102224.27
2018-10-21T14:46:50.144Z,102223.80
2018-10-21T14:49:18.870Z,102224.56
2018-10-21T14:51:48.439Z,102219.01
2018-10-21T14:54:17.318Z,102216.02
2018-10-21T14:56:45.967Z,102212.98
2018-10-21T14:59:14.691Z,102212.41
2018-10-21T15:01:43.479Z,102213.16
2018-10-21T15:04:12.261Z,102203.84
2018-10-21T15:06:40.919Z,102205.41
2018-10-21T15:09:11.352Z,102208.90
2018-10-21T15:11:40.176Z,102203.52
2018-10-21T15:14:09.422Z,102200.80
2018-10-21T15:16:38.192Z,102199.09
2018-10-21T15:19:07.084Z,102200.52
2018-10-21T15:21:35.858Z,102197.33
2018-10-21T15:24:05.149Z,102197.27
2018-10-21T15:26:33.926Z,102197.00
2018-10-21T15:29:03.035Z,102199.85
2018-10-21T15:31:31.732Z,102193.27
2018-10-21T15:34:00.501Z,102190.16
2018-10-21T15:36:29.157Z,102190.98
2018-10-21T15:38:57.867Z,102190.05
2018-10-21T15:41:26.651Z,102183.92
2018-10-21T15:43:55.366Z,102175.73
2018-10-21T15:46:24.084Z,102177.11
2018-10-21T15:48:53.135Z,102178.26
2018-10-21T15:51:21.802Z,102177.30
2018-10-21T15:53:50.524Z,102175.34
2018-10-21T15:56:19.865Z,102172.07
2018-10-21T15:58:48.801Z,102171.87
2018-10-21T16:01:17.548Z,102169.42
2018-10-21T16:03:46.576Z,102166.04
2018-10-21T16:06:15.304Z,102163.98
2018-10-21T16:08:44.510Z,102158.63
2018-10-21T16:11:13.256Z,102155.61
2018-10-21T16:13:42.013Z,102156.75
2018-10-21T16:16:12.097Z,102156.30
2018-10-21T16:18:40.716Z,102158.02
2018-10-21T16:21:09.445Z,102161.80
2018-10-21T16:23:38.439Z,102162.02
2018-10-21T16:26:07.229Z,102164.83
2018-10-21T16:28:35.922Z,102166.55
2018-10-21T16:31:05.040Z,102163.56
2018-10-21T16:33:49.615Z,102169.78
2018-10-21T16:39:17.455Z,102171.37
2018-10-21T16:44:37.324Z,102177.94
2018-10-21T16:58:52.320Z,102181.78
2018-10-21T17:01:21.327Z,102176.32
2018-10-21T17:04:02.989Z,102176.84
2018-10-21T17:06:32.428Z,102176.53
2018-10-21T17:09:01.253Z,102174.02
2018-10-21T17:11:30.651Z,102171.63
2018-10-21T17:13:59.427Z,102177.11
2018-10-21T17:16:28.145Z,102171.90
2018-10-21T17:18:57.125Z,102168.45
2018-10-21T17:21:25.852Z,102171.30
2018-10-21T17:23:55.348Z,102172.52
2018-10-21T17:26:24.097Z,102175.72
2018-10-21T17:28:52.827Z,102174.91
2018-10-21T17:31:22.052Z,102173.48
2018-10-21T17:33:51.648Z,102172.61
2018-10-21T17:36:20.628Z,102167.78
2018-10-21T17:38:49.655Z,102173.83
2018-10-21T17:41:19.312Z,102165.02
2018-10-21T17:43:48.229Z,102170.59
2018-10-21T17:46:17.327Z,102175.45
2018-10-21T17:48:45.961Z,102170.98
2018-10-21T17:51:14.690Z,102174.77
2018-10-21T17:53:43.575Z,102175.48
2018-10-21T17:56:12.316Z,102175.25
2018-10-21T17:58:41.162Z,102171.22
2018-10-21T18:01:10.289Z,102173.69
2018-10-21T18:03:39.250Z,102174.08
2018-10-21T18:06:07.976Z,102170.82
2018-10-21T18:08:36.717Z,102176.36
2018-10-21T18:11:06.239Z,102176.13
2018-10-21T18:13:35.222Z,102172.48
2018-10-21T18:16:05.315Z,102173.97
2018-10-21T18:18:34.126Z,102172.87
2018-10-21T18:21:03.133Z,102171.40
2018-10-21T18:23:32.104Z,102171.61
2018-10-21T18:26:00.837Z,102177.55
2018-10-21T18:28:29.542Z,102170.61
2018-10-21T18:30:58.303Z,102175.51
2018-10-21T18:33:27.203Z,102177.15
2018-10-21T18:35:55.928Z,102174.28
2018-10-21T18:38:24.840Z,102179.88
2018-10-21T18:40:54.205Z,102176.30
2018-10-21T18:43:23.753Z,102185.73
2018-10-21T18:45:52.490Z,102188.63
2018-10-21T18:48:21.467Z,102191.11
2018-10-21T18:50:50.143Z,102188.06
2018-10-21T18:53:19.933Z,102186.12
2018-10-21T18:55:49.324Z,102186.23
2018-10-21T18:58:18.388Z,102187.36
2018-10-21T19:00:47.318Z,102184.56
2018-10-21T19:03:17.238Z,102188.22
2018-10-21T19:05:46.217Z,102179.13
2018-10-21T19:08:15.211Z,102183.56
2018-10-21T19:10:44.190Z,102181.09
2018-10-21T19:13:14.015Z,102181.28
2018-10-21T19:15:42.720Z,102174.94
2018-10-21T19:18:11.785Z,102183.00
2018-10-21T19:20:42.204Z,102180.16
2018-10-21T19:23:11.020Z,102181.28
2018-10-21T19:25:39.768Z,102182.80
2018-10-21T19:28:08.547Z,102179.21
2018-10-21T19:30:37.383Z,102176.27
2018-10-21T19:33:06.132Z,102178.09
2018-10-21T19:35:35.036Z,102172.94
2018-10-21T19:38:03.764Z,102174.77
2018-10-21T19:40:33.383Z,102172.81
2018-10-21T19:43:02.177Z,102178.28
2018-10-21T19:45:30.832Z,102173.41
2018-10-21T19:48:00.632Z,102177.78
2018-10-21T19:50:29.376Z,102177.92
2018-10-21T19:52:58.113Z,102174.97
2018-10-21T19:55:26.904Z,102177.20
2018-10-21T19:57:55.926Z,102177.72
2018-10-21T20:00:24.685Z,102173.39
2018-10-21T20:02:53.643Z,102177.58
2018-10-21T20:05:22.361Z,102181.77
2018-10-21T20:07:51.305Z,102178.13
2018-10-21T20:10:20.087Z,102172.27
2018-10-21T20:12:48.740Z,102175.94
2018-10-21T20:15:17.472Z,102182.73
2018-10-21T20:17:46.224Z,102189.64
2018-10-21T20:20:14.940Z,102189.20
2018-10-21T20:22:43.672Z,102188.60
2018-10-21T20:25:12.458Z,102193.72
2018-10-21T20:27:41.193Z,102188.88
2018-10-21T20:30:11.048Z,102195.81
2018-10-21T20:32:39.856Z,102197.49
2018-10-21T20:35:10.389Z,102196.59
2018-10-21T20:37:39.117Z,102197.69
2018-10-21T20:40:08.530Z,102194.92
2018-10-21T20:42:37.232Z,102183.81
2018-10-21T20:45:07.408Z,102187.89
2018-10-21T20:47:36.527Z,102182.48
2018-10-21T20:50:05.342Z,102183.52
2018-10-21T20:52:34.041Z,102184.09
2018-10-21T20:55:02.768Z,102179.45
2018-10-21T20:57:31.784Z,102190.09
2018-10-21T21:00:00.538Z,102195.05
2018-10-21T21:02:29.257Z,102187.55
2018-10-21T21:04:57.988Z,102194.00
2018-10-21T21:07:27.847Z,102193.89
2018-10-21T21:09:56.586Z,102190.30
2018-10-21T21:12:25.439Z,102193.62
2018-10-21T21:14:54.157Z,102197.80
2018-10-21T21:17:22.952Z,102198.58
2018-10-21T21:19:51.672Z,102201.00
2018-10-21T21:22:20.440Z,102202.48
2018-10-21T21:25:08.628Z,102197.09
2018-10-21T21:27:37.347Z,102196.90
2018-10-21T21:30:06.641Z,102191.05
2018-10-21T21:35:29.095Z,102190.52
2018-10-21T21:37:57.832Z,102191.06
2018-10-21T21:40:26.548Z,102194.98
2018-10-21T21:42:55.256Z,102192.63
2018-10-21T21:45:24.036Z,102185.96
2018-10-21T21:47:53.020Z,102186.59
2018-10-21T21:50:21.768Z,102197.70
2018-10-21T21:52:50.507Z,102193.95
2018-10-21T21:55:19.264Z,102192.52
2018-10-21T22:00:22.947Z,102191.12
2018-10-21T22:02:57.940Z,102192.81
2018-10-21T22:05:26.671Z,102185.36
2018-10-21T22:07:55.471Z,102178.75
2018-10-21T22:10:24.453Z,102167.42
2018-10-21T22:12:53.168Z,102176.91
2018-10-21T22:15:22.148Z,102169.91
2018-10-21T22:17:51.269Z,102167.13
2018-10-21T22:20:19.995Z,102172.23
2018-10-21T22:22:48.708Z,102170.45
2018-10-21T22:25:17.433Z,102175.55
2018-10-21T22:27:46.193Z,102182.80
2018-10-21T22:30:14.981Z,102185.81
2018-10-21T22:32:43.672Z,102191.50
2018-10-21T22:35:12.399Z,102194.12
2018-10-21T22:37:41.116Z,102189.23
2018-10-21T22:40:09.880Z,102192.10
2018-10-21T22:42:57.884Z,102194.64
2018-10-21T22:45:26.612Z,102198.03
2018-10-21T22:47:55.704Z,102196.72
2018-10-21T22:50:24.444Z,102196.64
2018-10-21T22:52:53.160Z,102194.42
2018-10-21T22:55:21.887Z,102195.66
2018-10-21T22:57:51.131Z,102199.13
2018-10-21T23:00:19.855Z,102200.81
2018-10-21T23:02:53.100Z,102197.73
2018-10-21T23:05:22.310Z,102198.11
2018-10-21T23:07:51.021Z,102198.97
2018-10-21T23:10:19.777Z,102200.59
2018-10-21T23:12:48.487Z,102197.05
2018-10-21T23:15:17.231Z,102186.28
2018-10-21T23:17:46.052Z,102173.48
2018-10-21T23:20:14.761Z,102169.92
2018-10-21T23:22:43.508Z,102181.95
2018-10-21T23:25:12.213Z,102180.02
2018-10-21T23:27:40.947Z,102182.59
2018-10-21T23:30:09.670Z,102187.05
2018-10-21T23:32:38.378Z,102183.13
2018-10-21T23:35:07.751Z,102182.06
2018-10-21T23:37:36.412Z,102184.52
2018-10-21T23:40:06.824Z,102185.69
2018-10-21T23:42:35.632Z,102186.52
2018-10-21T23:45:05.348Z,102189.45
2018-10-21T23:47:34.064Z,102185.93
2018-10-21T23:50:02.819Z,102176.77
2018-10-21T23:52:31.552Z,102180.82
2018-10-21T23:55:00.568Z,102173.42
2018-10-21T23:57:29.344Z,102172.06
2018-10-21T23:59:58.078Z,102173.28
